Patrick Air Force Base
KCOF : now visible

Airfield :











YOU CAN JOIN US ON...

 
LOGIN :

Register | Disclaimer

   EN    FR    IT 

 









Legend :    VFR   Marginal VFR   IFR   Intensive IFR   Very Intensive IFR
Visi :
Ceiling :
>= 8 km
>= 3000ft
5 to 8 km
1000 to 3000 ft
1500m to 5 km
500 to 1000 ft
800 to 1500m
200 to 500 ft
< 800m
< 200 ft
Symbols :   Thunderstorms  Fog  Heavy snow  Heavy precipitations  Wind > 20 kt






- Airport Elevation : 8 ft


KCOF - Patrick Air Force Base

CURRENT METAR :
  • 131356Z AUTO 36013G18KT 10SM FEW027 21/19 A3007 RMK AO2 PK WND 02026/06 SLP187 T02090185 TSNO $

EXPIRED METARs :
  • 131246Z AUTO 36014G21KT 10SM FEW014 19/18 A3004 RMK AO2 DZB37E46 SLP177 TSNO $
  • 131237Z AUTO 36016KT 10SM -DZ FEW014 19/18 A3004 RMK AO2 DZB37 SLP177 TSNO $
  • 131156Z AUTO 36016G22KT 10SM FEW015 SCT020 BKN045 19/19 A3002 RMK AO2 SLP170 60000 T01880185 10194 20182 52018 TSNO $

TAF TAF KCOF
Valid from the 13 at 11:00 until the 14 at 17:00 UTC


131100Z 1311/1417 02018G25KT 9999 SCT015 OVC025 QNH2999INS
BECMG 1317/1318 04018G25KT 9999 BKN030 QNH3003INS
BECMG 1322/1323 06012G18KT 9999 SCT035 BKN240 QNH3005INS
BECMG 1407/1408 09010G15KT 9999 SCT030 BKN240 QNH3004INS TX23/1319Z TN19/1311Z



MET'MAP, your aeronautical weather chart ! - Copyright ORBIFLY December 2007 - Disclaimer

ORBIFLY MET'MAP TEAM :

Programming & Development : Alexandra Zaïnal
Concept & Development : Baudouin d'Aumeries
Co-Development & Prog : Marc-Olivier Méhu
Technical & hardware support : Manuel Goepfert

Contact : metmap@orbifly.com




SOURCES & CREDITS :

   NOAA       Earth
Advisory